x

Buoy F01 - West Penobscot Bay (44033) Wave Buoy

3:04 - Tue 19th Sep 2017 All times are EDT. -4 hours from GMT.

  • Sig Wave height 2.6ft
  • Peak Period 11s
  • Wind
    11mph, 13mph gusts
  • Sea Temp 58°f
  • Aire Temp 60°f
  • Sea Pressure 1019.4mb
  • Buoy F01 - West Penobscot Bay
  • Buoy F01 - West Penobscot Bay

More Historic Weather Station data

Upgrade to MSW Pro to gain access to the past 30 days of data for over 8000 Wavebouys and Weather Stations around the globe.

Join

Comparision Forecast

View Surf forecast
   
mar 09/19 3:04 2.5ft 11s 11 13 mph 1019.4mb 58f 60f
2:04 1.6ft 6s 7 9 mph 1019.8mb 58f 60f
1:04 0.7ft  -  7 9 mph 1020.2mb 56f 60f
12:04 2ft 8s 11 13 mph 1020.9mb 56f 59f
11:04  -   -  7 9 mph 1021.1mb - 58f
10:04 1.6ft 8s 9 9 mph 1021.4mb 56f 58f
9:04 0.7ft  -  7 11 mph 1021.5mb 56f 58f
8:04 1ft 4s 9 13 mph 1021.4mb 58f 59f
7:04 2.5ft 11s 9 13 mph 1021.4mb 58f 59f
6:04 2ft 11s 9 9 mph 1021.5mb 59f 59f
5:04 2.5ft 11s 7 9 mph 1021.6mb 59f 59f
4:04 2.5ft 11s 7 7 mph 1021.8mb 59f 59f
3:04 2ft 11s 7 7 mph 1021.9mb 59f 59f
2:04 2ft 11s 7 9 mph 1021.9mb 57f 59f
1:04 1.6ft 11s 7 9 mph 1022.6mb 57f 58f
12:04 1.3ft 6s 7 9 mph 1022.5mb 57f 58f
lun 09/18 10:04 2ft 8s 4 4 mph 1022.8mb 56f 57f
9:04 2ft 11s 4 4 mph 1022.8mb 56f 57f
8:04  -   -  4 4 mph 1022.8mb 56f 58f
7:04 2.5ft 11s 9 9 mph 1022.2mb 59f 59f
6:04 2.5ft 11s 11 18 mph 1022.5mb 59f 58f
5:04 2.5ft 11s 4 7 mph 1022.4mb 60f 58f
4:04 2.5ft 11s 7 7 mph 1022.5mb 59f 58f
3:04 2.5ft 11s 9 11 mph 1022.4mb 59f 58f
2:04 1.6ft 11s 7 7 mph 1022.3mb 59f 58f
1:04 2ft 11s 4 4 mph 1022.2mb 59f 59f
12:04 2ft 11s 7 7 mph 1022.2mb 59f 59f
11:04 1.3ft 6s 2 2 mph 1022.3mb 58f 58f
10:04 1.3ft 6s 4 4 mph 1022.7mb 58f 57f
9:04 1.6ft 8s 4 7 mph 1022.7mb 57f 57f
8:04 1.6ft 11s 4 4 mph 1022.4mb 57f 57f
7:04 2ft 11s 7 7 mph 1021.9mb 59f 58f
6:04 2ft 11s 4 7 mph 1021.4mb 59f 58f
5:04 2ft 11s 7 9 mph 1021.3mb 59f 58f
4:04 1.6ft 11s 2 4 mph 1020.9mb 60f 59f
3:04 1.6ft 11s 2 4 mph 1021.2mb 59f 59f
2:04 2ft 11s 7 7 mph 1021.3mb 59f 59f
1:04 1.6ft 11s 7 7 mph 1020.8mb 59f 59f
12:04 1.3ft 11s 4 7 mph 1020.9mb 59f 58f
dom 09/17 11:04 1.3ft 11s 4 4 mph 1021.1mb 59f 58f
10:04 1.3ft 11s 7 7 mph 1021mb 59f 58f
9:04 1.6ft 11s 7 9 mph 1020.9mb 58f 58f
8:04 1.3ft 11s 7 9 mph 1020.5mb 58f 58f
7:04 1.6ft 11s 7 9 mph 1020.1mb 60f 59f
6:04 2ft 11s 9 9 mph 1020.5mb 59f 59f
5:04 2ft 11s 9 9 mph 1020.6mb 59f 59f
4:04 2ft 11s 9 9 mph 1020.5mb 60f 59f
3:04 2ft 11s 9 11 mph 1020.4mb 60f 60f
2:04 1.3ft 11s 9 9 mph 1020.5mb 60f 59f
1:04 1.6ft 11s 9 9 mph 1020.9mb 62f 59f
12:04 1.3ft 11s 4 7 mph 1021.3mb 61f 59f
11:04 1.3ft 11s 2 4 mph 1021.4mb 60f 59f
10:04 1.3ft 11s 2 2 mph 1021.4mb 59f 60f
9:04 1.3ft 11s 4 7 mph 1021.7mb 58f 58f
8:04 1.3ft 8s 4 4 mph 1021.4mb 59f 58f
7:04 0.7ft  -  4 4 mph 1020.9mb 58f 58f
6:04 1.6ft 11s 7 9 mph 1020.7mb 59f 58f
5:04 2ft 11s 7 7 mph 1020.1mb 58f 58f
4:04 1.6ft 11s 7 9 mph 1020mb 59f 58f
3:04 1ft 5s 4 7 mph 1019.8mb 60f 58f
2:04 1.6ft 11s 7 7 mph 1020.3mb 59f 58f
1:04 1.6ft 11s 9 9 mph 1020.4mb 59f 58f
12:04 1.6ft 11s 4 7 mph 1020.2mb 59f 59f
sáb 09/16 11:04 1.6ft 11s 9 16 mph 1020.1mb 60f 59f
10:04 1.3ft 11s 9 11 mph 1020mb 60f 58f
9:04 1ft 6s 9 11 mph 1019.9mb 60f 58f
8:04 1.6ft 11s 7 9 mph 1019.6mb 60f 59f
7:04  -   -  11 13 mph 1019.4mb 60f 60f
6:04 1ft 4s 11 13 mph 1019.3mb 60f 60f
5:04 1.6ft 11s 9 11 mph 1019.3mb 59f 60f
4:04 2ft 11s 9 11 mph 1019.5mb 59f 60f
3:04 1.6ft 11s 7 9 mph 1019.5mb 59f 60f
2:04 1.3ft 11s 4 7 mph 1019.9mb 61f 61f
1:04 1.3ft 11s 7 9 mph 1020.4mb 61f 61f
12:04 1.3ft 11s 4 7 mph 1020.5mb 61f 61f
10:04 1.3ft 6s 2 4 mph 1020.9mb 60f 62f
9:04 1.3ft 6s 4 4 mph 1020.6mb 59f 61f
8:04 1.3ft 11s 4 4 mph 1020.1mb 59f 60f
7:04 1.3ft 8s 2 2 mph 1019.9mb 59f 60f
6:04 1.3ft 8s  -  2 mph 1020mb 59f 61f
5:04 1.3ft 8s 4 7 mph 1019.7mb 60f 61f
4:04 1.3ft 8s 2 4 mph 1019.4mb 60f 60f
3:04 1ft 8s 2 4 mph 1019.6mb 60f 60f
1:04 1.3ft 11s  -  2 mph 1019.9mb 60f 60f
12:04 1ft 11s 4 4 mph 1019.9mb 60f 60f
vie 09/15 11:04 1ft 11s 2 2 mph 1019.9mb 60f 59f
10:04 1ft 8s 2 4 mph 1019.7mb 59f 59f
9:04 1ft 8s 2 4 mph 1019.1mb 59f 59f